Data for 12/13/2008

Time Sea-Level Adjusted Pressure Absolute Pressure Temperature Relative Humidity Dew Point   
(mb) (inHg) (mb) (inHg) (C) (F) (%) (C) (F)
00:05 994 29.35 823 24.3 1.6 34.8 68 -3.8 25.2
00:10 994 29.35 823 24.3 1.5 34.8 68 -3.7 25.3
00:15 994 29.35 823 24.3 1.5 34.8 68 -3.7 25.4
00:20 994 29.35 823 24.3 1.6 34.8 68 -3.8 25.2
00:25 994 29.35 823 24.3 1.5 34.8 67 -3.8 25.1
00:30 994 29.35 823 24.3 1.5 34.8 68 -3.8 25.2
00:35 994 29.35 823 24.3 1.5 34.7 68 -3.7 25.3
00:40 994 29.35 823 24.3 1.5 34.6 69 -3.7 25.4
00:45 993 29.32 823 24.3 1.4 34.5 68 -3.8 25.1
00:50 993 29.32 823 24.3 1.5 34.6 69 -3.7 25.4
00:55 993 29.32 823 24.3 1.4 34.5 69 -3.6 25.5
01:00 993 29.32 822 24.27 1.4 34.5 67 -4 24.8
01:05 993 29.32 822 24.27 1.6 34.8 66 -4 24.8
01:10 993 29.32 822 24.27 1.5 34.8 67 -3.9 25.1
01:15 993 29.32 822 24.27 1.5 34.7 67 -4 24.9
01:20 993 29.32 822 24.27 1.5 34.7 67 -3.9 25
01:25 993 29.32 822 24.27 1.4 34.6 68 -3.8 25.1
01:30 993 29.32 822 24.27 1.3 34.4 69 -3.8 25.2
01:35 993 29.32 822 24.27 1.3 34.4 69 -3.8 25.1
01:40 992 29.29 822 24.27 1.2 34.2 69 -3.8 25.1
01:45 992 29.29 822 24.27 1.1 34 69 -3.9 25
01:50 992 29.29 821 24.24 1.2 34.1 69 -3.8 25.1
01:55 992 29.29 821 24.24 1.1 34 70 -3.8 25.1
02:00 992 29.29 821 24.24 1.1 33.9 70 -3.9 25
02:05 992 29.29 821 24.24 1 33.9 70 -3.9 25
02:10 992 29.29 821 24.24 1 33.8 69 -4 24.9
02:15 992 29.29 821 24.24 1 33.8 70 -4 24.9
02:20 992 29.29 821 24.24 1 33.9 69 -4 24.7
02:25 992 29.29 821 24.24 1.2 34.1 68 -4 24.8
02:30 992 29.29 821 24.24 1.1 34 69 -4 24.7
02:35 992 29.29 821 24.24 1.1 34 68 -4.1 24.6
02:40 992 29.29 821 24.24 1 33.8 69 -4.1 24.6
02:45 992 29.29 821 24.24 0.9 33.6 69 -4.2 24.5
02:50 992 29.29 821 24.24 0.9 33.6 69 -4.2 24.5
02:55 992 29.29 821 24.24 0.8 33.5 69 -4.3 24.3
03:00 992 29.29 821 24.24 0.8 33.4 69 -4.3 24.3
03:05 992 29.29 821 24.24 0.7 33.3 69 -4.3 24.2
03:10 992 29.29 821 24.24 0.7 33.3 68 -4.5 24
03:15 991 29.26 821 24.24 0.8 33.4 68 -4.5 23.9
03:20 991 29.26 821 24.24 0.9 33.7 67 -4.5 23.9
03:25 991 29.26 821 24.24 1.1 34 66 -4.6 23.8
03:30 991 29.26 820 24.21 1.3 34.4 65 -4.5 23.9
03:35 991 29.26 820 24.21 1.3 34.4 65 -4.4 24
03:40 991 29.26 820 24.21 1.3 34.4 65 -4.5 23.9
03:45 991 29.26 820 24.21 1.4 34.5 65 -4.5 23.8
03:50 991 29.26 820 24.21 1.4 34.6 64 -4.7 23.6
03:55 991 29.26 820 24.21 1.6 34.9 64 -4.6 23.7
04:00 991 29.26 820 24.21 1.6 34.9 64 -4.6 23.8
04:05 991 29.26 820 24.21 1.5 34.7 65 -4.4 24
04:10 991 29.26 820 24.21 1.3 34.3 66 -4.4 24.1
04:15 991 29.26 820 24.21 1.1 34 67 -4.4 24
04:20 991 29.26 820 24.21 1.1 34 67 -4.3 24.3
04:25 991 29.26 820 24.21 0.9 33.6 68 -4.4 24.2
04:30 991 29.26 820 24.21 0.9 33.6 67 -4.5 23.9
04:35 991 29.26 820 24.21 0.9 33.5 67 -4.6 23.7
04:40 990 29.23 820 24.21 0.9 33.7 66 -4.7 23.6
04:45 990 29.23 820 24.21 1 33.9 65 -4.7 23.5
04:50 990 29.23 820 24.21 1.3 34.3 65 -4.5 23.9
04:55 990 29.23 820 24.21 1.2 34.2 65 -4.6 23.8
05:00 990 29.23 820 24.21 1.2 34.2 67 -4.3 24.3
05:05 991 29.26 820 24.21 1.1 34 70 -3.7 25.4
05:10 991 29.26 820 24.21 0.7 33.3 73 -3.6 25.5
05:15 991 29.26 820 24.21 -0.1 31.8 79 -3.3 26
05:20 991 29.26 820 24.21 -1.2 29.8 78 -4.6 23.7
05:25 991 29.26 820 24.21 -3.1 26.5 84 -5.4 22.3
05:30 991 29.26 821 24.24 -4.2 24.4 86 -6.2 20.9
05:35 991 29.26 821 24.24 -5.1 22.9 88 -6.8 19.7
05:40 992 29.29 821 24.24 -5.8 21.6 89 -7.4 18.7
05:45 992 29.29 821 24.24 -6.3 20.6 88 -8 17.7
05:50 992 29.29 821 24.24 -7.1 19.2 88 -8.8 16.2
05:55 992 29.29 821 24.24 -7.9 17.9 89 -9.4 15.1
06:00 992 29.29 822 24.27 -8.5 16.8 89 -10 13.9
06:05 993 29.32 822 24.27 -8.8 16.2 89 -10.2 13.6
06:10 994 29.35 823 24.3 -8.9 16 89 -10.4 13.2
06:15 994 29.35 823 24.3 -9.4 15.1 90 -10.8 12.5
06:20 994 29.35 823 24.3 -9.7 14.5 89 -11.1 11.9
06:25 995 29.38 824 24.33 -9.8 14.4 91 -11 12.3
06:30 995 29.38 824 24.33 -9.6 14.8 91 -10.8 12.6
06:35 995 29.38 824 24.33 -9.7 14.5 89 -11.2 11.9
06:40 995 29.38 825 24.36 -9.9 14.1 90 -11.3 11.7
06:45 996 29.41 825 24.36 -10.2 13.7 89 -11.7 10.9
06:50 996 29.41 825 24.36 -10.6 13 89 -12 10.3
06:55 996 29.41 825 24.36 -10.8 12.6 89 -12.3 9.9
07:00 996 29.41 825 24.36 -11 12.2 89 -12.5 9.5
07:05 996 29.41 826 24.39 -11.3 11.7 89 -12.8 9
07:10 997 29.44 826 24.39 -11.6 11.2 89 -13.1 8.5
07:15 997 29.44 826 24.39 -11.8 10.9 88 -13.3 8
07:20 997 29.44 826 24.39 -11.9 10.6 88 -13.5 7.6
07:25 997 29.44 826 24.39 -12.1 10.2 88 -13.8 7.2
07:30 997 29.44 826 24.39 -12.3 9.8 88 -13.9 7
07:35 997 29.44 826 24.39 -12.4 9.7 88 -13.9 6.9
07:40 997 29.44 826 24.39 -12.5 9.6 88 -14.1 6.6
07:45 997 29.44 826 24.39 -12.7 9.1 87 -14.4 6.1
07:50 997 29.44 826 24.39 -12.9 8.8 87 -14.6 5.8
07:55 997 29.44 827 24.42 -13 8.7 88 -14.6 5.7
08:00 997 29.44 827 24.42 -13.1 8.5 87 -14.8 5.4
08:05 998 29.47 827 24.42 -13.2 8.3 88 -14.8 5.4
08:10 998 29.47 827 24.42 -13.2 8.2 87 -14.9 5.2
08:15 998 29.47 827 24.42 -13.4 8 87 -15.1 4.8
08:20 998 29.47 827 24.42 -13.6 7.5 87 -15.4 4.3
08:25 998 29.47 827 24.42 -13.8 7.1 88 -15.5 4.2
08:30 998 29.47 827 24.42 -13.8 7.1 87 -15.6 3.9
08:35 998 29.47 827 24.42 -13.9 6.9 88 -15.6 4
08:40 998 29.47 827 24.42 -13.9 6.9 86 -15.8 3.5
08:45 999 29.5 828 24.45 -14.2 6.5 87 -15.9 3.4
08:50 999 29.5 828 24.45 -14.3 6.3 87 -15.9 3.3
08:55 999 29.5 828 24.45 -14.4 6.1 86 -16.2 2.8
09:00 999 29.5 828 24.45 -14.5 5.8 86 -16.4 2.4
09:05 999 29.5 828 24.45 -14.7 5.5 86 -16.5 2.3
09:10 999 29.5 828 24.45 -14.8 5.3 86 -16.7 1.9
09:15 999 29.5 828 24.45 -14.9 5.1 86 -16.8 1.7
09:20 999 29.5 828 24.45 -15 5 84 -17.2 1.1
09:25 999 29.5 828 24.45 -15.3 4.4 85 -17.3 0.8
09:30 999 29.5 828 24.45 -15.4 4.4 85 -17.4 0.8
09:35 999 29.5 828 24.45 -15.6 4 85 -17.5 0.4
09:40 999 29.5 829 24.48 -15.8 3.6 85 -17.7 0.1
09:45 1000 29.53 829 24.48 -15.8 3.6 86 -17.7 0.2
09:50 1000 29.53 829 24.48 -15.8 3.6 86 -17.6 0.4
09:55 1000 29.53 829 24.48 -15.8 3.6 84 -17.9 -0.2
10:00 1000 29.53 829 24.48 -15.8 3.6 84 -17.8 -0.1
10:05 1000 29.53 829 24.48 -15.8 3.6 84 -17.9 -0.2
10:10 1000 29.53 829 24.48 -15.8 3.5 83 -18.1 -0.6
10:15 1000 29.53 830 24.51 -15.9 3.3 84 -18.1 -0.6
10:20 1001 29.56 830 24.51 -16.1 3.1 84 -18.1 -0.6
10:25 1001 29.56 830 24.51 -16.1 3 84 -18.3 -0.9
10:30 1001 29.56 830 24.51 -16.2 2.9 84 -18.3 -1
10:35 1001 29.56 830 24.51 -16.3 2.6 84 -18.4 -1.2
10:40 1000 29.53 830 24.51 -16.5 2.4 84 -18.6 -1.6
10:45 1001 29.56 830 24.51 -16.5 2.4 84 -18.6 -1.5
10:50 1001 29.56 830 24.51 -16.5 2.2 84 -18.7 -1.6
10:55 1000 29.53 830 24.51 -16.5 2.3 84 -18.7 -1.6
11:00 1001 29.56 830 24.51 -16.5 2.2 84 -18.6 -1.5
11:05 1001 29.56 830 24.51 -16.6 2.2 83 -18.8 -1.8
11:10 1001 29.56 830 24.51 -16.6 2.2 83 -18.8 -1.8
11:15 1001 29.56 830 24.51 -16.6 2.2 82 -18.9 -2.1
11:20 1001 29.56 830 24.51 -16.7 2 85 -18.7 -1.7
11:25 1001 29.56 831 24.54 -16.8 1.7 83 -19.1 -2.4
11:30 1001 29.56 830 24.51 -16.9 1.5 82 -19.3 -2.7
11:35 1001 29.56 830 24.51 -17.1 1.2 82 -19.5 -3
11:40 1002 29.59 831 24.54 -17.2 1.1 83 -19.4 -2.9
11:45 1002 29.59 831 24.54 -17.2 1.1 83 -19.3 -2.8
11:50 1002 29.59 831 24.54 -17.3 0.8 85 -19.3 -2.7
11:55 1002 29.59 831 24.54 -17.1 1.2 83 -19.4 -2.8
12:00 1002 29.59 831 24.54 -17.2 1.1 83 -19.4 -3
12:05 1002 29.59 831 24.54 -17.5 0.5 83 -19.7 -3.4
12:10 1002 29.59 831 24.54 -17.6 0.3 82 -20 -3.9
12:15 1002 29.59 832 24.57 -17.8 -0 82 -20.1 -4.2
12:20 1002 29.59 832 24.57 -18.1 -0.5 82 -20.5 -4.8
12:25 1003 29.62 832 24.57 -18.4 -1 83 -20.6 -5.1
12:30 1003 29.62 832 24.57 -18.5 -1.3 82 -20.8 -5.5
12:35 1003 29.62 832 24.57 -18.7 -1.6 82 -20.9 -5.7
12:40 1003 29.62 832 24.57 -18.8 -1.8 83 -21 -5.7
12:45 1003 29.62 832 24.57 -18.5 -1.3 83 -20.8 -5.4
12:50 1003 29.62 832 24.57 -18.6 -1.5 84 -20.7 -5.2
12:55 1003 29.62 832 24.57 -18.6 -1.4 82 -20.9 -5.6
13:00 1003 29.62 832 24.57 -18.7 -1.7 83 -20.9 -5.7
13:05 1003 29.62 832 24.57 -18.7 -1.7 83 -20.9 -5.7
13:10 1003 29.62 833 24.6 -18.7 -1.6 84 -20.8 -5.4
13:15 1004 29.65 833 24.6 -18.6 -1.4 83 -20.7 -5.3
13:20 1004 29.65 833 24.6 -18.8 -1.8 82 -21.1 -5.9
13:25 1004 29.65 833 24.6 -19 -2.2 83 -21.2 -6.2
13:30 1004 29.65 833 24.6 -19 -2.1 81 -21.5 -6.6
13:35 1004 29.65 833 24.6 -19.1 -2.3 82 -21.5 -6.7
13:40 1004 29.65 833 24.6 -19.1 -2.3 82 -21.4 -6.6
13:45 1004 29.65 833 24.6 -19.1 -2.3 82 -21.4 -6.6
13:50 1004 29.65 834 24.63 -19.1 -2.4 81 -21.5 -6.7
13:55 1005 29.68 834 24.63 -19.1 -2.4 82 -21.5 -6.7
14:00 1005 29.68 834 24.63 -19.1 -2.4 81 -21.6 -6.8
14:05 1005 29.68 834 24.63 -19.2 -2.6 82 -21.6 -6.9
14:10 1005 29.68 834 24.63 -19.1 -2.4 82 -21.5 -6.8
14:15 1005 29.68 834 24.63 -19.2 -2.6 82 -21.5 -6.8
14:20 1005 29.68 834 24.63 -19 -2.2 79 -21.8 -7.2
14:25 1005 29.68 834 24.63 -19.1 -2.3 80 -21.7 -7
14:30 1005 29.68 835 24.66 -19.1 -2.4 80 -21.8 -7.2
14:35 1005 29.68 835 24.66 -19.1 -2.4 81 -21.6 -6.9
14:40 1005 29.68 835 24.66 -19.2 -2.6 80 -21.9 -7.4
14:45 1006 29.71 835 24.66 -19.4 -2.9 81 -21.9 -7.5
14:50 1006 29.71 835 24.66 -19.4 -2.8 81 -21.9 -7.4
14:55 1006 29.71 835 24.66 -19.4 -2.9 80 -22 -7.5
15:00 1006 29.71 835 24.66 -19.5 -3.1 81 -22.1 -7.7
15:05 1006 29.71 835 24.66 -19.7 -3.4 81 -22.2 -8
15:10 1006 29.71 835 24.66 -19.8 -3.6 79 -22.5 -8.5
15:15 1006 29.71 835 24.66 -20 -4 81 -22.5 -8.4
15:20 1006 29.71 835 24.66 -19.9 -3.9 79 -22.7 -8.8
15:25 1006 29.71 835 24.66 -19.9 -3.9 80 -22.5 -8.5
15:30 1006 29.71 835 24.66 -19.9 -3.8 80 -22.6 -8.6
15:35 1006 29.71 836 24.69 -19.9 -3.8 78 -22.8 -9
15:40 1007 29.74 836 24.69 -20.2 -4.3 79 -22.9 -9.2
15:45 1007 29.74 836 24.69 -20.1 -4.2 80 -22.7 -8.8
15:50 1007 29.74 836 24.69 -20.1 -4.2 81 -22.6 -8.7
15:55 1007 29.74 836 24.69 -20.2 -4.3 79 -22.9 -9.2
16:00 1007 29.74 836 24.69 -20.3 -4.6 80 -22.9 -9.3
16:05 1007 29.74 836 24.69 -20.5 -4.8 81 -22.9 -9.3
16:10 1007 29.74 836 24.69 -20.5 -5 79 -23.2 -9.8
16:15 1007 29.74 836 24.69 -20.6 -5 79 -23.4 -10
16:20 1007 29.74 836 24.69 -20.7 -5.2 79 -23.5 -10.2
16:25 1007 29.74 837 24.72 -20.8 -5.4 79 -23.5 -10.2
16:30 1007 29.74 837 24.72 -20.7 -5.3 80 -23.3 -9.9
16:35 1007 29.74 837 24.72 -20.8 -5.4 81 -23.3 -10
16:40 1007 29.74 837 24.72 -20.8 -5.4 78 -23.6 -10.5
16:45 1007 29.74 837 24.72 -20.8 -5.5 81 -23.3 -10
16:50 1008 29.77 837 24.72 -20.9 -5.6 80 -23.5 -10.2
16:55 1008 29.77 837 24.72 -20.9 -5.7 79 -23.7 -10.7
17:00 1008 29.77 837 24.72 -21.2 -6.2 78 -24 -11.3
17:05 1008 29.77 837 24.72 -21.4 -6.6 80 -24 -11.2
17:10 1008 29.77 837 24.72 -21.4 -6.5 79 -24.1 -11.4
17:15 1008 29.77 837 24.72 -21.6 -6.9 79 -24.3 -11.8
17:20 1008 29.77 837 24.72 -21.8 -7.2 79 -24.6 -12.2
17:25 1008 29.77 837 24.72 -22 -7.6 79 -24.7 -12.5
17:30 1008 29.77 837 24.72 -22.2 -8 78 -25.1 -13.1
17:35 1008 29.77 838 24.75 -22.4 -8.2 78 -25.2 -13.4
17:40 1008 29.77 838 24.75 -22.4 -8.3 78 -25.3 -13.5
17:45 1008 29.77 838 24.75 -22.6 -8.6 77 -25.6 -14
17:50 1009 29.8 838 24.75 -22.6 -8.7 77 -25.6 -14.1
17:55 1009 29.8 838 24.75 -22.7 -8.8 77 -25.6 -14
18:00 1009 29.8 838 24.75 -22.6 -8.8 77 -25.6 -14
18:05 1009 29.8 838 24.75 -22.6 -8.8 78 -25.5 -14
18:10 1009 29.8 838 24.75 -22.7 -8.8 78 -25.5 -14
18:15 1009 29.8 838 24.75 -22.6 -8.7 78 -25.5 -13.9
18:20 1009 29.8 838 24.75 -22.6 -8.7 78 -25.5 -13.9
18:25 1009 29.8 838 24.75 -22.6 -8.8 78 -25.5 -13.9
18:30 1009 29.8 838 24.75 -22.6 -8.6 78 -25.4 -13.7
18:35 1009 29.8 838 24.75 -22.5 -8.5 78 -25.4 -13.7
18:40 1009 29.8 839 24.78 -22.6 -8.6 78 -25.4 -13.8
18:45 1009 29.8 839 24.78 -22.7 -8.8 77 -25.6 -14.1
18:50 1010 29.83 839 24.78 -22.8 -9 78 -25.6 -14.1
18:55 1010 29.83 839 24.78 -22.8 -9 78 -25.7 -14.3
19:00 1010 29.83 839 24.78 -22.8 -9.1 77 -25.8 -14.5
19:05 1010 29.83 839 24.78 -22.9 -9.2 77 -25.9 -14.5
19:10 1010 29.83 839 24.78 -22.9 -9.2 77 -25.9 -14.6
19:15 1010 29.83 839 24.78 -22.9 -9.2 77 -25.9 -14.6
19:20 1010 29.83 839 24.78 -23 -9.5 77 -26 -14.8
19:25 1010 29.83 839 24.78 -23.1 -9.5 76 -26.1 -15.1
19:30 1010 29.83 839 24.78 -23.1 -9.5 77 -26 -14.8
19:35 1010 29.83 839 24.78 -23.1 -9.7 78 -26 -14.9
19:40 1010 29.83 839 24.78 -23.1 -9.6 78 -26 -14.7
19:45 1010 29.83 840 24.81 -23.1 -9.5 78 -25.9 -14.7
19:50 1010 29.83 840 24.81 -23.1 -9.5 77 -26 -14.8
19:55 1010 29.83 840 24.81 -23.2 -9.7 77 -26.2 -15.2
20:00 1010 29.83 840 24.81 -23.2 -9.7 77 -26.2 -15.1
20:05 1010 29.83 840 24.81 -23.1 -9.6 78 -25.9 -14.7
20:10 1010 29.83 840 24.81 -23.1 -9.5 78 -26 -14.8
20:15 1011 29.85 840 24.81 -23.1 -9.5 79 -25.8 -14.5
20:20 1011 29.85 840 24.81 -22.9 -9.1 78 -25.7 -14.3
20:25 1011 29.85 840 24.81 -22.8 -9.1 76 -25.9 -14.7
20:30 1011 29.85 840 24.81 -22.9 -9.3 78 -25.8 -14.5
20:35 1011 29.85 840 24.81 -23.1 -9.6 77 -26.1 -15
20:40 1011 29.85 840 24.81 -23.3 -9.9 77 -26.3 -15.3
20:45 1011 29.85 840 24.81 -23.4 -10.1 77 -26.4 -15.6
20:50 1011 29.85 840 24.81 -23.4 -10.1 78 -26.2 -15.2
20:55 1011 29.85 840 24.81 -23.5 -10.2 77 -26.4 -15.6
21:00 1011 29.85 840 24.81 -23.5 -10.2 77 -26.4 -15.5
21:05 1011 29.85 840 24.81 -23.4 -10.2 78 -26.3 -15.3
21:10 1011 29.85 840 24.81 -23.5 -10.2 77 -26.4 -15.6
21:15 1011 29.85 840 24.81 -23.6 -10.5 77 -26.6 -15.9
21:20 1011 29.85 840 24.81 -23.7 -10.6 77 -26.6 -15.9
21:25 1011 29.85 840 24.81 -23.8 -10.8 76 -26.9 -16.4
21:30 1011 29.85 840 24.81 -23.9 -11 76 -27 -16.6
21:35 1011 29.85 840 24.81 -23.9 -10.9 76 -26.9 -16.4
21:40 1011 29.85 840 24.81 -23.8 -10.8 75 -27 -16.6
21:45 1011 29.85 840 24.81 -24.1 -11.3 75 -27.3 -17.1
21:50 1011 29.85 840 24.81 -24 -11.1 77 -27 -16.6
21:55 1011 29.85 840 24.81 -23.9 -11.1 75 -27.2 -17
22:00 1011 29.85 841 24.83 -24.1 -11.4 75 -27.4 -17.2
22:05 1011 29.85 841 24.83 -24.2 -11.5 75 -27.5 -17.5
22:10 1011 29.85 841 24.83 -24.2 -11.6 75 -27.5 -17.5
22:15 1012 29.88 841 24.83 -24.2 -11.6 74 -27.6 -17.7
22:20 1012 29.88 841 24.83 -24.1 -11.5 75 -27.5 -17.4
22:25 1012 29.88 841 24.83 -24 -11.2 76 -27.2 -16.9
22:30 1012 29.88 841 24.83 -23.9 -11 75 -27.1 -16.7
22:35 1012 29.88 841 24.83 -23.8 -10.9 73 -27.4 -17.2
22:40 1012 29.88 841 24.83 -24.1 -11.3 74 -27.5 -17.6
22:45 1012 29.88 841 24.83 -24.1 -11.4 75 -27.3 -17.2
22:50 1012 29.88 841 24.83 -24 -11.2 74 -27.5 -17.5
22:55 1012 29.88 841 24.83 -24.3 -11.7 73 -27.8 -18
23:00 1012 29.88 841 24.83 -24.3 -11.8 74 -27.8 -18
23:05 1012 29.88 841 24.83 -24.4 -11.9 75 -27.7 -17.8
23:10 1012 29.88 841 24.83 -24.4 -11.8 75 -27.7 -17.8
23:15 1012 29.88 841 24.83 -24.5 -12.2 75 -27.7 -17.9
23:20 1012 29.88 841 24.83 -24.8 -12.6 75 -28.1 -18.5
23:25 1012 29.88 841 24.83 -24.8 -12.6 75 -28 -18.5
23:30 1012 29.88 841 24.83 -24.9 -12.8 75 -28.2 -18.7
23:35 1012 29.88 841 24.83 -25.1 -13.1 75 -28.3 -19
23:40 1012 29.88 841 24.83 -25.3 -13.5 75 -28.5 -19.3
23:45 1012 29.88 841 24.83 -25.4 -13.6 75 -28.6 -19.5
23:50 1012 29.88 841 24.83 -25.5 -13.9 75 -28.7 -19.7
23:55 1012 29.88 841 24.83 -25.6 -14 75 -28.9 -19.9
24:00 1012 29.88 841 24.83 -25.7 -14.3 75 -29 -20.1